Time;durP1;ratioP1;P1;durP2;ratioP2;P2;SDS_P1;SDS_P2;PMS_P1;PMS_P2;Temp;Humidity;BMP_temperature;BMP_pressure;BME280_temperature;BME280_humidity;BME280_pressure;Samples;Min_cycle;Max_cycle;Signal;HPM_P1;HPM_P2
2021/12/31 06:59:57;;;;;;;;;;;;;;;9.23;91.92;97769.72;4181436;28;10462;-70
2021/12/31 07:01:59;;;;;;;;;;;;;;;9.31;90.93;97771.56;4166517;28;5771;-69
2021/12/31 07:04:01;;;;;;;;;;;;;;;9.34;90.89;97769.41;4148676;28;5803;-67
2021/12/31 07:06:03;;;;;;;;;;;;;;;9.40;90.71;97759.19;4165032;28;5762;-67
2021/12/31 07:08:04;;;;;;;;;;;;;;;9.45;90.36;97764.81;4165441;28;5822;-67
2021/12/31 07:10:07;;;;;;;;;;;;;;;9.45;90.35;97755.09;4166812;28;5758;-66
2021/12/31 07:12:09;;;;;;;;;;;;;;;9.47;89.83;97757.56;4165038;28;5848;-67
2021/12/31 07:14:10;;;;;;;;;;;;;;;9.48;89.47;97767.13;4166397;28;5761;-67
2021/12/31 07:16:12;;;;;;;;;;;;;;;9.44;89.41;97773.72;4166384;28;5743;-66
2021/12/31 07:18:14;;;;;;;;;;;;;;;9.34;90.06;97779.97;4166364;28;5767;-67
2021/12/31 07:20:16;;;;;;;;;;;;;;;9.30;90.15;97783.94;4166308;28;5875;-67
2021/12/31 07:22:17;;;;;;;;;;;;;;;9.27;90.74;97784.22;4166273;28;5759;-67
2021/12/31 07:24:19;;;;;;;;;;;;;;;9.26;90.89;97784.41;4166156;28;5899;-67
2021/12/31 07:26:21;;;;;;;;;;;;;;;9.27;90.89;97778.13;4166080;28;5891;-67
2021/12/31 07:28:23;;;;;;;;;;;;;;;9.31;90.95;97776.84;4166064;28;5779;-67
2021/12/31 07:30:25;;;;;;;;;;;;;;;9.24;91.19;97767.91;4165959;28;5818;-68
2021/12/31 07:32:27;;;;;;;;;;;;;;;9.15;91.95;97780.25;4166128;28;5775;-68
2021/12/31 07:34:28;;;;;;;;;;;;;;;9.25;91.73;97778.28;4166139;28;5780;-67
2021/12/31 07:36:30;;;;;;;;;;;;;;;9.32;91.50;97787.22;4166200;28;5763;-67
2021/12/31 07:38:35;;;;;;;;;;;;;;;9.36;91.13;97789.53;4164202;28;5693;-67
2021/12/31 07:40:41;;;;;;;;;;;;;;;9.36;91.27;97789.53;4165763;28;7747;-67
2021/12/31 07:42:43;;;;;;;;;;;;;;;9.24;91.46;97794.28;4164716;28;5778;-67
2021/12/31 07:44:44;;;;;;;;;;;;;;;9.20;91.73;97791.16;4165824;28;5839;-66
2021/12/31 07:46:46;;;;;;;;;;;;;;;9.10;92.55;97793.09;4166103;28;5791;-68
2021/12/31 07:48:48;;;;;;;;;;;;;;;9.06;92.86;97783.84;4164801;28;5800;-68
2021/12/31 07:50:52;;;;;;;;;;;;;;;9.27;91.67;97789.50;4164405;28;5790;-68
2021/12/31 07:52:54;;;;;;;;;;;;;;;9.27;91.84;97789.50;4164418;28;5802;-68
2021/12/31 07:54:56;;;;;;;;;;;;;;;9.40;91.58;97794.34;4165992;28;5746;-67
2021/12/31 07:56:57;;;;;;;;;;;;;;;9.34;91.27;97794.97;4165748;28;5759;-67
2021/12/31 07:58:59;;;;;;;;;;;;;;;9.30;91.72;97802.41;4165532;28;5759;-67
2021/12/31 08:01:01;;;;;;;;;;;;;;;9.40;91.37;97804.06;4154248;28;5763;-68
2021/12/31 08:03:03;;;;;;;;;;;;;;;9.40;91.31;97802.28;4154830;28;5751;-67
2021/12/31 08:05:06;;;;;;;;;;;;;;;9.40;91.21;97807.56;4154586;28;6534;-67
2021/12/31 08:07:07;;;;;;;;;;;;;;;9.37;91.47;97809.66;4153320;28;5766;-67
2021/12/31 08:09:09;;;;;;;;;;;;;;;9.32;91.35;97812.78;4154611;28;5759;-67
2021/12/31 08:11:10;;;;;;;;;;;;;;;9.21;91.54;97813.91;4154097;28;5754;-67
2021/12/31 08:13:12;;;;;;;;;;;;;;;8.98;92.52;97818.94;4154478;28;5763;-67
2021/12/31 08:15:15;;;;;;;;;;;;;;;9.14;92.00;97820.81;4154803;28;5755;-67
2021/12/31 08:17:16;;;;;;;;;;;;;;;9.28;91.60;97820.19;4154602;28;5752;-67
2021/12/31 08:19:18;;;;;;;;;;;;;;;8.95;91.74;97810.53;4152828;28;5767;-68
2021/12/31 08:21:20;;;;;;;;;;;;;;;9.10;92.23;97814.19;4153549;28;5774;-67
2021/12/31 08:23:21;;;;;;;;;;;;;;;9.26;91.52;97821.34;4154600;28;5870;-67
2021/12/31 08:25:23;;;;;;;;;;;;;;;9.27;91.14;97828.25;4154298;28;5759;-67
2021/12/31 08:27:25;;;;;;;;;;;;;;;9.18;91.36;97832.72;4152939;28;5867;-67
2021/12/31 08:29:26;;;;;;;;;;;;;;;9.19;91.54;97828.25;4153422;28;5759;-68
2021/12/31 08:31:28;;;;;;;;;;;;;;;9.06;91.87;97836.63;4154704;28;5771;-68
2021/12/31 08:33:30;;;;;;;;;;;;;;;9.10;91.89;97824.75;4135094;28;6093;-67
2021/12/31 08:35:31;;;;;;;;;;;;;;;9.30;91.26;97825.31;4151849;28;6035;-67
2021/12/31 08:37:33;;;;;;;;;;;;;;;9.30;90.89;97831.44;4153443;28;5770;-68
2021/12/31 08:39:37;;;;;;;;;;;;;;;9.30;90.82;97822.69;4152818;28;5776;-67
2021/12/31 08:41:40;;;;;;;;;;;;;;;8.93;91.83;97817.75;4153251;28;5888;-67
2021/12/31 08:43:49;;;;;;;;;;;;;;;8.71;92.79;97821.75;4153299;28;5780;-68
2021/12/31 08:45:51;;;;;;;;;;;;;;;8.94;92.26;97819.38;4152268;28;5763;-67
2021/12/31 08:47:52;;;;;;;;;;;;;;;9.35;90.97;97815.09;4153264;28;5763;-67
2021/12/31 08:49:54;;;;;;;;;;;;;;;9.66;89.95;97819.81;4154236;28;5755;-67
2021/12/31 08:51:57;;;;;;;;;;;;;;;9.68;89.41;97823.94;4152515;28;5776;-67
2021/12/31 08:53:59;;;;;;;;;;;;;;;9.58;89.64;97845.19;4153041;28;5775;-68
2021/12/31 08:56:01;;;;;;;;;;;;;;;9.56;89.67;97841.06;4154147;28;5764;-67
2021/12/31 08:58:02;;;;;;;;;;;;;;;9.59;89.85;97851.31;4152847;28;5759;-68
2021/12/31 09:00:06;;;;;;;;;;;;;;;9.55;89.52;97856.09;4152420;28;5787;-68
2021/12/31 09:02:08;;;;;;;;;;;;;;;9.46;89.46;97862.31;4153998;28;5748;-66
2021/12/31 09:04:09;;;;;;;;;;;;;;;9.45;89.66;97858.03;4151590;28;5754;-67
2021/12/31 09:06:17;;;;;;;;;;;;;;;9.44;89.78;97852.91;4153820;28;5759;-67
2021/12/31 09:08:19;;;;;;;;;;;;;;;9.41;89.72;97854.06;4152668;28;5759;-67
2021/12/31 09:10:23;;;;;;;;;;;;;;;9.45;89.56;97862.47;4152820;28;5755;-67
2021/12/31 09:12:25;;;;;;;;;;;;;;;9.42;89.18;97861.00;4152598;28;6480;-67
2021/12/31 09:14:27;;;;;;;;;;;;;;;9.46;89.30;97864.13;4151523;28;5762;-67
2021/12/31 09:16:29;;;;;;;;;;;;;;;9.45;88.76;97865.13;4153736;28;5767;-68
2021/12/31 09:18:30;;;;;;;;;;;;;;;9.37;88.78;97883.56;4152695;28;5815;-67
2021/12/31 09:20:32;;;;;;;;;;;;;;;9.36;88.63;97888.00;4153722;28;5755;-68
2021/12/31 09:22:33;;;;;;;;;;;;;;;9.32;88.40;97887.50;4153843;28;5759;-68
2021/12/31 09:24:35;;;;;;;;;;;;;;;9.18;88.65;97879.38;4152056;28;5801;-67
2021/12/31 09:26:37;;;;;;;;;;;;;;;9.12;90.21;97880.00;4153544;28;5808;-68
2021/12/31 09:28:39;;;;;;;;;;;;;;;9.22;89.66;97885.97;4152311;28;5746;-68
2021/12/31 09:30:43;;;;;;;;;;;;;;;9.32;89.33;97890.16;4153837;28;5774;-67
2021/12/31 09:32:45;;;;;;;;;;;;;;;9.31;88.78;97891.13;4152585;28;5795;-68
2021/12/31 09:34:48;;;;;;;;;;;;;;;9.35;89.01;97891.63;4152868;28;6535;-68
2021/12/31 09:36:51;;;;;;;;;;;;;;;9.12;89.58;97878.19;4150999;28;5754;-68
2021/12/31 09:38:53;;;;;;;;;;;;;;;9.28;89.50;97886.16;4153320;28;5867;-68
2021/12/31 09:40:55;;;;;;;;;;;;;;;9.27;88.76;97881.88;4149191;28;5891;-68
2021/12/31 09:42:59;;;;;;;;;;;;;;;9.28;88.81;97885.31;4152851;28;5818;-68
2021/12/31 09:45:03;;;;;;;;;;;;;;;9.33;88.43;97883.06;4152461;28;5763;-68
2021/12/31 09:47:10;;;;;;;;;;;;;;;9.32;88.21;97884.88;4152232;28;5759;-68
2021/12/31 09:49:12;;;;;;;;;;;;;;;9.28;88.60;97891.44;4135382;28;5780;-68
2021/12/31 09:51:14;;;;;;;;;;;;;;;9.32;88.41;97898.06;4134368;28;5792;-68
2021/12/31 09:53:18;;;;;;;;;;;;;;;9.32;88.60;97895.44;4152929;28;5814;-68
2021/12/31 09:55:41;;;;;;;;;;;;;;;9.40;88.53;97896.44;4150770;28;5771;-68
2021/12/31 09:57:42;;;;;;;;;;;;;;;9.33;88.49;97905.00;4151559;28;5774;-68
2021/12/31 09:59:46;;;;;;;;;;;;;;;9.26;89.16;97903.97;4151821;28;5744;-68
2021/12/31 10:01:52;;;;;;;;;;;;;;;9.27;89.02;97905.59;4151856;28;5758;-68
2021/12/31 10:03:56;;;;;;;;;;;;;;;9.24;89.19;97913.03;4151605;28;5771;-68
2021/12/31 10:06:12;;;;;;;;;;;;;;;9.24;89.36;97900.66;4125088;28;5918;-68
2021/12/31 10:08:15;;;;;;;;;;;;;;;9.30;89.63;97896.56;4137417;28;5780;-68
2021/12/31 10:10:20;;;;;;;;;;;;;;;9.24;90.04;97886.63;4137673;28;5785;-68
2021/12/31 10:12:21;;;;;;;;;;;;;;;9.26;90.18;97887.31;4137451;28;5784;-68
2021/12/31 10:14:37;;;;;;;;;;;;;;;9.16;90.52;97897.97;4146107;28;5760;-67
2021/12/31 10:16:40;;;;;;;;;;;;;;;9.14;90.90;97907.84;4148950;28;6461;-67
2021/12/31 10:18:42;;;;;;;;;;;;;;;9.21;90.35;97906.25;4149579;28;5852;-68
2021/12/31 10:20:51;;;;;;;;;;;;;;;9.14;90.46;97913.13;4150392;28;5767;-66
2021/12/31 10:23:13;;;;;;;;;;;;;;;9.24;90.25;97907.75;4148757;28;5771;-66
2021/12/31 10:25:20;;;;;;;;;;;;;;;9.22;89.73;97907.09;4150223;28;5743;-66
2021/12/31 10:27:23;;;;;;;;;;;;;;;9.28;89.77;97890.59;4144371;28;5751;-66
2021/12/31 10:29:26;;;;;;;;;;;;;;;9.27;89.38;97902.97;4151643;28;5826;-66
2021/12/31 10:31:27;;;;;;;;;;;;;;;9.24;89.61;97895.38;4147074;28;5787;-67
2021/12/31 10:33:43;;;;;;;;;;;;;;;9.26;89.76;97897.84;4150183;28;5743;-67
2021/12/31 10:35:46;;;;;;;;;;;;;;;9.17;89.61;97885.59;4150624;28;5775;-68
2021/12/31 10:37:58;;;;;;;;;;;;;;;9.19;89.61;97896.84;4150982;28;5778;-68
2021/12/31 10:40:01;;;;;;;;;;;;;;;9.28;89.20;97887.97;4150768;28;5779;-67
2021/12/31 10:42:10;;;;;;;;;;;;;;;9.24;88.73;97886.63;4149365;28;5747;-68
2021/12/31 10:44:12;;;;;;;;;;;;;;;9.27;88.78;97883.69;4150123;28;5883;-70
2021/12/31 10:46:16;;;;;;;;;;;;;;;9.30;88.55;97884.22;4147412;28;5763;-68
2021/12/31 10:48:17;;;;;;;;;;;;;;;9.32;88.53;97890.16;4151460;28;5772;-67
2021/12/31 10:50:20;;;;;;;;;;;;;;;9.32;88.37;97892.78;4150520;28;5787;-67
2021/12/31 10:52:33;;;;;;;;;;;;;;;9.34;88.76;97890.81;4139191;28;5934;-72
2021/12/31 10:54:47;;;;;;;;;;;;;;;9.34;88.69;97882.91;4148063;28;5764;-74
2021/12/31 10:56:50;;;;;;;;;;;;;;;9.34;88.54;97885.53;4147536;28;5866;-73
2021/12/31 10:58:58;;;;;;;;;;;;;;;9.14;88.28;97878.84;4137703;28;6504;-73
2021/12/31 11:01:03;;;;;;;;;;;;;;;8.94;89.76;97882.69;4149883;28;5896;-70
2021/12/31 11:03:05;;;;;;;;;;;;;;;9.12;89.37;97867.63;4143758;28;6006;-70
2021/12/31 11:05:10;;;;;;;;;;;;;;;9.24;88.75;97868.16;4149853;28;5779;-70
2021/12/31 11:07:11;;;;;;;;;;;;;;;9.24;88.89;97874.28;4142984;28;5906;-69
2021/12/31 11:09:14;;;;;;;;;;;;;;;9.25;88.75;97880.38;4148231;28;5766;-68
2021/12/31 11:11:19;;;;;;;;;;;;;;;9.29;88.33;97877.28;4144595;28;5882;-68
2021/12/31 11:13:26;;;;;;;;;;;;;;;9.33;88.27;97878.59;4144780;28;5901;-67
2021/12/31 11:15:28;;;;;;;;;;;;;;;9.31;87.23;97875.31;4146031;28;6705;-68
2021/12/31 11:17:31;;;;;;;;;;;;;;;9.17;88.34;97873.25;4145028;28;5885;-68
2021/12/31 11:19:35;;;;;;;;;;;;;;;9.22;88.00;97864.88;4146446;28;5862;-68
2021/12/31 11:21:38;;;;;;;;;;;;;;;9.24;88.16;97858.44;4142597;28;6626;-69
2021/12/31 11:23:42;;;;;;;;;;;;;;;9.38;87.81;97858.81;4145236;28;5885;-69
2021/12/31 11:25:55;;;;;;;;;;;;;;;9.22;86.99;97844.59;4141583;28;5143;-68
2021/12/31 11:27:59;;;;;;;;;;;;;;;9.28;87.70;97843.09;4144587;28;7368;-71
2021/12/31 11:30:03;;;;;;;;;;;;;;;9.36;87.37;97829.94;4145705;28;5885;-70
2021/12/31 11:32:05;;;;;;;;;;;;;;;9.39;86.82;97826.97;4145398;28;5121;-70
2021/12/31 11:34:12;;;;;;;;;;;;;;;9.35;87.27;97838.84;4144902;28;5871;-70
2021/12/31 11:36:14;;;;;;;;;;;;;;;9.30;87.39;97838.53;4148699;28;5783;-70
2021/12/31 11:38:39;;;;;;;;;;;;;;;9.15;87.36;97845.38;4150994;28;6597;-70
2021/12/31 11:40:49;;;;;;;;;;;;;;;9.26;87.53;97838.00;4146194;28;5870;-70
2021/12/31 11:43:13;;;;;;;;;;;;;;;9.36;87.09;97829.94;4146785;28;5854;-72
2021/12/31 11:45:15;;;;;;;;;;;;;;;9.28;86.45;97811.44;4150363;28;5804;-70
2021/12/31 11:47:27;;;;;;;;;;;;;;;9.20;86.97;97814.06;4125028;28;5883;-71
2021/12/31 11:49:28;;;;;;;;;;;;;;;9.37;86.55;97804.38;4146588;28;5894;-68
2021/12/31 11:51:34;;;;;;;;;;;;;;;9.28;85.89;97785.88;4150559;28;5870;-66
2021/12/31 11:53:58;;;;;;;;;;;;;;;9.32;86.15;97781.13;4150371;28;5874;-67
2021/12/31 11:56:00;;;;;;;;;;;;;;;9.33;86.40;97786.25;4143680;28;5948;-66
2021/12/31 11:58:41;;;;;;;;;;;;;;;9.26;85.57;97798.41;4149068;28;5902;-67
2021/12/31 12:00:42;;;;;;;;;;;;;;;9.40;85.79;97798.78;4144563;28;5899;-67
2021/12/31 12:02:44;;;;;;;;;;;;;;;9.41;85.43;97805.75;4141869;28;5896;-66
2021/12/31 12:05:08;;;;;;;;;;;;;;;9.30;85.14;97812.13;4149209;28;5787;-66
2021/12/31 12:07:15;;;;;;;;;;;;;;;9.29;85.81;97816.59;4140836;28;5966;-67
2021/12/31 12:09:17;;;;;;;;;;;;;;;9.41;84.88;97827.69;4142067;28;5898;-67
2021/12/31 12:13:39;;;;;;;;;;;;;;;9.32;84.23;97826.81;4077366;28;5892;-67
2021/12/31 12:15:41;;;;;;;;;;;;;;;9.33;84.87;97828.47;4100361;28;5948;-67
2021/12/31 12:17:45;;;;;;;;;;;;;;;9.12;86.52;97820.13;4097793;28;5828;-67
2021/12/31 12:19:47;;;;;;;;;;;;;;;9.21;86.29;97815.72;4097626;28;5816;-67
2021/12/31 12:21:54;;;;;;;;;;;;;;;9.30;86.57;97815.59;4109354;28;5798;-67
2021/12/31 12:23:57;;;;;;;;;;;;;;;9.46;86.04;97824.53;4097781;28;5955;-67
2021/12/31 12:25:59;;;;;;;;;;;;;;;9.48;86.19;97819.91;4099285;28;5821;-67
2021/12/31 12:28:09;;;;;;;;;;;;;;;9.49;86.63;97826.84;4097537;28;5831;-67
2021/12/31 12:30:14;;;;;;;;;;;;;;;9.53;86.74;97828.19;4097708;28;5828;-67
2021/12/31 12:33:15;;;;;;;;;;;;;;;9.58;86.31;97824.06;4091774;28;5871;-67
2021/12/31 12:34:43;;;;;;;;;;;;;;;9.58;85.98;97817.97;4081331;28;5856;-67
2021/12/31 12:36:48;;;;;;;;;;;;;;;9.52;85.70;97816.81;4107147;28;5820;-67
2021/12/31 12:39:00;;;;;;;;;;;;;;;9.48;86.26;97823.38;4085316;29;5999;-68
2021/12/31 12:41:09;;;;;;;;;;;;;;;9.54;85.88;97821.94;4100365;28;5839;-67
2021/12/31 12:43:32;;;;;;;;;;;;;;;9.45;85.68;97812.34;4082212;28;5892;-67
2021/12/31 12:45:38;;;;;;;;;;;;;;;9.39;85.89;97810.31;4102814;28;5821;-67
2021/12/31 12:47:40;;;;;;;;;;;;;;;9.42;86.05;97813.50;4102197;28;5836;-68
2021/12/31 12:49:53;;;;;;;;;;;;;;;9.40;85.87;97822.53;4102544;28;5792;-68
2021/12/31 12:52:09;;;;;;;;;;;;;;;9.47;85.66;97834.94;4085073;29;5827;-68
2021/12/31 12:54:12;;;;;;;;;;;;;;;9.45;85.08;97833.44;4102437;28;5824;-67
2021/12/31 12:56:16;;;;;;;;;;;;;;;9.44;85.60;97834.44;4102678;28;5829;-67
2021/12/31 12:58:24;;;;;;;;;;;;;;;9.27;86.41;97847.56;4084967;29;7094;-68
2021/12/31 13:00:34;;;;;;;;;;;;;;;9.26;86.46;97838.00;4102263;28;5992;-66
2021/12/31 13:02:45;;;;;;;;;;;;;;;9.41;86.30;97832.13;4069252;28;5806;-66
2021/12/31 13:04:47;;;;;;;;;;;;;;;9.45;86.37;97833.44;4085163;28;5743;-66
2021/12/31 13:07:07;;;;;;;;;;;;;;;9.46;85.96;97835.94;4102366;28;5840;-65
2021/12/31 13:09:15;;;;;;;;;;;;;;;9.36;85.83;97837.88;4101926;28;5816;-67
2021/12/31 13:11:19;;;;;;;;;;;;;;;9.43;86.14;97835.44;4102138;28;5812;-66
2021/12/31 13:13:21;;;;;;;;;;;;;;;9.57;85.40;97835.63;4101120;28;5809;-67
2021/12/31 13:15:23;;;;;;;;;;;;;;;9.41;86.16;97847.97;4102200;28;5920;-66
2021/12/31 13:17:32;;;;;;;;;;;;;;;9.45;85.53;97841.38;4101993;28;5820;-67
2021/12/31 13:19:37;;;;;;;;;;;;;;;9.52;85.77;97845.03;4084830;29;5755;-66
2021/12/31 13:21:39;;;;;;;;;;;;;;;9.37;86.29;97843.97;4101991;28;5832;-67
2021/12/31 13:23:50;;;;;;;;;;;;;;;9.42;86.41;97841.69;4101785;28;5824;-66
2021/12/31 13:25:51;;;;;;;;;;;;;;;9.43;86.00;97835.44;4101676;28;5856;-67
2021/12/31 13:28:13;;;;;;;;;;;;;;;9.36;86.06;97832.59;4101905;28;5946;-67
2021/12/31 13:30:15;;;;;;;;;;;;;;;9.45;85.93;97823.72;4101889;28;6517;-67
2021/12/31 13:32:19;;;;;;;;;;;;;;;9.59;85.87;97825.72;4084525;29;5818;-67
2021/12/31 13:34:23;;;;;;;;;;;;;;;9.64;85.32;97827.91;4084563;28;5879;-66
2021/12/31 13:36:27;;;;;;;;;;;;;;;9.57;85.24;97825.06;4102266;28;5765;-66
2021/12/31 13:38:29;;;;;;;;;;;;;;;9.69;85.63;97828.22;4101842;28;5833;-66
2021/12/31 13:40:32;;;;;;;;;;;;;;;9.76;85.14;97831.88;4101606;28;5828;-66
2021/12/31 13:42:35;;;;;;;;;;;;;;;9.73;85.09;97844.56;4100937;28;5844;-67
2021/12/31 13:44:40;;;;;;;;;;;;;;;9.58;85.28;97841.72;4100134;28;5841;-66
2021/12/31 13:46:44;;;;;;;;;;;;;;;9.51;86.03;97840.72;4101225;28;5800;-66
2021/12/31 13:48:46;;;;;;;;;;;;;;;9.72;85.37;97849.00;4101554;28;5957;-66
2021/12/31 13:50:48;;;;;;;;;;;;;;;9.77;85.10;97852.00;4095984;28;5875;-67
2021/12/31 13:52:56;;;;;;;;;;;;;;;9.75;84.85;97854.00;4099263;28;5831;-66
2021/12/31 13:55:00;;;;;;;;;;;;;;;9.67;85.49;97847.88;4082226;28;5994;-66
2021/12/31 13:57:03;;;;;;;;;;;;;;;9.79;84.98;97852.69;4098341;28;5939;-68
2021/12/31 13:59:38;;;;;;;;;;;;;;;9.80;84.77;97854.31;4099161;28;5824;-68
2021/12/31 14:01:42;;;;;;;;;;;;;;;9.87;85.03;97863.25;4094980;28;5821;-68
2021/12/31 14:04:10;;;;;;;;;;;;;;;9.60;85.14;97856.41;4099104;28;5816;-68
2021/12/31 14:06:14;;;;;;;;;;;;;;;9.75;85.13;97856.63;4082074;28;5851;-69
2021/12/31 14:08:41;;;;;;;;;;;;;;;9.78;84.98;97866.88;4101914;28;5884;-68
2021/12/31 14:10:39;;;;;;;;;;;;;;;9.80;84.46;97869.34;4097587;28;5800;-69
2021/12/31 14:12:48;;;;;;;;;;;;;;;9.81;84.39;97874.47;4099273;28;5948;-68
2021/12/31 14:14:49;;;;;;;;;;;;;;;9.82;84.39;97876.09;4078896;28;5843;-69
2021/12/31 14:16:52;;;;;;;;;;;;;;;9.73;84.74;97873.59;4080367;28;5883;-68
2021/12/31 14:18:54;;;;;;;;;;;;;;;9.74;84.49;97865.56;4099293;28;6646;-69
2021/12/31 14:20:55;;;;;;;;;;;;;;;9.54;85.26;97850.97;4099653;28;6010;-68
2021/12/31 14:23:03;;;;;;;;;;;;;;;9.58;84.99;97850.47;4083831;28;5850;-68
2021/12/31 14:25:06;;;;;;;;;;;;;;;9.49;85.50;97845.31;4096770;28;6501;-68
2021/12/31 14:27:08;;;;;;;;;;;;;;;9.73;85.15;97855.13;4093796;28;5836;-71
2021/12/31 14:29:09;;;;;;;;;;;;;;;9.81;84.30;97866.53;4099128;28;6537;-67
2021/12/31 14:31:11;;;;;;;;;;;;;;;9.84;84.73;97865.38;4100610;28;5800;-66
2021/12/31 14:33:13;;;;;;;;;;;;;;;9.82;83.15;97873.47;4099769;28;5880;-66
2021/12/31 14:35:21;;;;;;;;;;;;;;;9.95;83.93;97864.25;4099250;28;5824;-68
2021/12/31 14:37:24;;;;;;;;;;;;;;;9.91;83.48;97861.13;4100230;28;5891;-68
2021/12/31 14:39:26;;;;;;;;;;;;;;;9.71;83.88;97862.38;4101712;28;5842;-68
2021/12/31 14:41:30;;;;;;;;;;;;;;;9.83;84.34;97867.19;4102168;28;5746;-68
2021/12/31 14:43:31;;;;;;;;;;;;;;;9.93;84.12;97869.69;4099430;28;5629;-68
2021/12/31 14:45:33;;;;;;;;;;;;;;;9.80;83.92;97864.88;4096604;28;5721;-67
2021/12/31 14:47:40;;;;;;;;;;;;;;;9.86;82.95;97866.91;4086293;29;5725;-68
2021/12/31 14:49:42;;;;;;;;;;;;;;;9.92;83.47;97868.88;4089038;28;5740;-67
2021/12/31 14:51:44;;;;;;;;;;;;;;;9.86;83.53;97864.25;4085605;28;5757;-68
2021/12/31 14:53:45;;;;;;;;;;;;;;;9.72;83.38;97856.13;4101667;28;5834;-69
2021/12/31 14:55:47;;;;;;;;;;;;;;;9.73;83.64;97852.47;4098888;28;5717;-69
2021/12/31 14:57:49;;;;;;;;;;;;;;;9.69;82.97;97840.59;4086350;29;5772;-68
2021/12/31 14:59:51;;;;;;;;;;;;;;;9.69;83.02;97828.22;4103846;29;5869;-69
2021/12/31 15:01:53;;;;;;;;;;;;;;;9.72;83.48;97835.00;4104408;28;5733;-68
2021/12/31 15:03:56;;;;;;;;;;;;;;;9.79;83.80;97834.19;4105483;29;5865;-67
2021/12/31 15:06:01;;;;;;;;;;;;;;;9.92;84.02;97841.63;4106552;29;7203;-67
2021/12/31 15:08:04;;;;;;;;;;;;;;;9.89;83.81;97831.41;4106576;28;5742;-69
2021/12/31 15:10:08;;;;;;;;;;;;;;;9.70;84.38;97843.06;4104180;28;6111;-67
2021/12/31 15:12:13;;;;;;;;;;;;;;;9.80;84.82;97842.94;4105247;28;5815;-68
2021/12/31 15:14:14;;;;;;;;;;;;;;;9.82;84.27;97849.69;4101964;28;5967;-68
2021/12/31 15:16:18;;;;;;;;;;;;;;;9.84;84.25;97844.25;4106191;28;5940;-68
2021/12/31 15:18:21;;;;;;;;;;;;;;;9.84;83.94;97841.59;4106855;28;5749;-68
2021/12/31 15:20:22;;;;;;;;;;;;;;;9.80;83.02;97842.94;4087054;29;5748;-68
2021/12/31 15:22:27;;;;;;;;;;;;;;;9.60;84.28;97834.47;4103990;28;5709;-68
2021/12/31 15:24:29;;;;;;;;;;;;;;;9.71;84.47;97843.91;4088960;28;5844;-68
2021/12/31 15:26:31;;;;;;;;;;;;;;;9.82;84.14;97841.78;4104707;28;5714;-68
2021/12/31 15:28:34;;;;;;;;;;;;;;;9.84;84.16;97845.06;4089505;29;5755;-68
2021/12/31 15:30:37;;;;;;;;;;;;;;;9.84;83.85;97849.53;4116609;28;5916;-68
2021/12/31 15:32:39;;;;;;;;;;;;;;;9.80;83.87;97854.31;4103921;28;5714;-66
2021/12/31 15:34:40;;;;;;;;;;;;;;;9.67;84.48;97851.31;4104853;28;5729;-67
2021/12/31 15:36:42;;;;;;;;;;;;;;;9.74;84.65;97847.06;4103392;28;5633;-67
2021/12/31 15:38:43;;;;;;;;;;;;;;;9.56;85.14;97849.00;4100232;28;5721;-67
2021/12/31 15:40:46;;;;;;;;;;;;;;;9.48;85.53;97838.41;4098852;28;5760;-68
2021/12/31 15:42:48;;;;;;;;;;;;;;;9.65;85.00;97834.00;4101875;28;5729;-67
2021/12/31 15:44:49;;;;;;;;;;;;;;;9.73;84.56;97845.38;4081796;28;5935;-68
2021/12/31 15:46:52;;;;;;;;;;;;;;;9.50;85.40;97849.63;4098210;28;5637;-67
2021/12/31 15:48:53;;;;;;;;;;;;;;;9.65;85.09;97855.94;4100387;28;5832;-66
2021/12/31 15:50:55;;;;;;;;;;;;;;;9.64;84.93;97859.59;4102280;28;5625;-67
2021/12/31 15:52:57;;;;;;;;;;;;;;;9.61;85.32;97862.53;4099983;28;5821;-67
2021/12/31 15:54:58;;;;;;;;;;;;;;;9.60;85.26;97860.88;4100775;28;5733;-67
2021/12/31 15:57:01;;;;;;;;;;;;;;;9.54;85.40;97864.16;4100734;28;6035;-67
2021/12/31 15:59:02;;;;;;;;;;;;;;;9.37;86.37;97873.00;4099699;28;6689;-67
2021/12/31 16:01:05;;;;;;;;;;;;;;;9.46;85.67;97882.59;4102241;28;5717;-67
2021/12/31 16:03:07;;;;;;;;;;;;;;;9.47;85.86;97884.25;4102992;28;5944;-67
2021/12/31 16:05:09;;;;;;;;;;;;;;;9.42;85.86;97889.22;4098675;28;5714;-67
2021/12/31 16:07:10;;;;;;;;;;;;;;;9.37;85.84;97894.13;4098764;28;6419;-67
2021/12/31 16:09:12;;;;;;;;;;;;;;;9.36;85.83;97892.47;4096110;28;5742;-67
2021/12/31 16:11:14;;;;;;;;;;;;;;;9.32;85.96;97892.78;4100652;28;5634;-67
2021/12/31 16:13:15;;;;;;;;;;;;;;;9.34;85.78;97893.44;4082567;28;5924;-67
2021/12/31 16:15:18;;;;;;;;;;;;;;;9.28;86.19;97891.44;4068845;29;5867;-68
2021/12/31 16:17:20;;;;;;;;;;;;;;;9.35;85.89;97894.28;4078386;29;5960;-68
2021/12/31 16:19:21;;;;;;;;;;;;;;;9.38;85.68;97891.31;4073145;29;5080;-67
2021/12/31 16:21:28;;;;;;;;;;;;;;;9.36;85.68;97884.53;4074576;29;5875;-67
2021/12/31 16:23:31;;;;;;;;;;;;;;;9.27;85.47;97888.97;4087374;28;6052;-67
2021/12/31 16:25:33;;;;;;;;;;;;;;;9.39;85.36;97882.41;4067171;29;6101;-67
2021/12/31 16:27:35;;;;;;;;;;;;;;;9.47;85.00;97885.09;4070298;29;5985;-67
2021/12/31 16:29:48;;;;;;;;;;;;;;;9.51;85.06;97888.22;4087376;28;5765;-67
2021/12/31 16:31:49;;;;;;;;;;;;;;;9.49;84.96;97892.84;4069864;29;6037;-66
2021/12/31 16:33:51;;;;;;;;;;;;;;;9.44;84.47;97897.78;4066252;29;5895;-67
2021/12/31 16:35:52;;;;;;;;;;;;;;;9.24;84.70;97884.81;4066865;29;6396;-67
2021/12/31 16:37:54;;;;;;;;;;;;;;;9.12;84.66;97886.09;4067220;29;5870;-67
2021/12/31 16:39:56;;;;;;;;;;;;;;;8.96;85.78;97886.00;4066967;29;6416;-66
2021/12/31 16:41:58;;;;;;;;;;;;;;;8.97;85.63;97890.31;4067374;29;6002;-64
2021/12/31 16:44:00;;;;;;;;;;;;;;;8.93;86.17;97894.22;4068963;29;5870;-64
2021/12/31 16:46:03;;;;;;;;;;;;;;;8.98;86.23;97894.59;4068464;29;5886;-65
2021/12/31 16:48:05;;;;;;;;;;;;;;;9.01;85.57;97894.28;4079379;28;5722;-65
2021/12/31 16:50:09;;;;;;;;;;;;;;;9.11;85.38;97895.00;4079646;28;5786;-65
2021/12/31 16:52:11;;;;;;;;;;;;;;;9.15;84.67;97890.22;4064285;29;5117;-65
2021/12/31 16:54:13;;;;;;;;;;;;;;;9.08;84.34;97897.13;4066659;29;6089;-65
2021/12/31 16:56:15;;;;;;;;;;;;;;;9.01;84.70;97899.53;4065140;29;5998;-65
2021/12/31 16:58:16;;;;;;;;;;;;;;;8.94;84.61;97894.06;4068071;29;5989;-65
2021/12/31 17:00:19;;;;;;;;;;;;;;;8.93;84.94;97897.69;4064694;29;6046;-65
2021/12/31 17:02:20;;;;;;;;;;;;;;;8.96;85.16;97899.19;4065405;29;5875;-66
2021/12/31 17:04:22;;;;;;;;;;;;;;;9.18;85.21;97895.19;4069152;29;5872;-65
2021/12/31 17:06:26;;;;;;;;;;;;;;;9.36;84.82;97906.47;4075542;29;6094;-66
2021/12/31 17:08:27;;;;;;;;;;;;;;;9.26;84.37;97906.59;4067365;29;6237;-66
2021/12/31 17:10:34;;;;;;;;;;;;;;;9.08;84.99;97910.31;4066163;29;5875;-66
2021/12/31 17:12:36;;;;;;;;;;;;;;;9.10;84.96;97914.44;4086969;28;6044;-66
2021/12/31 17:14:38;;;;;;;;;;;;;;;9.02;85.46;97912.56;4100737;28;5817;-66
2021/12/31 17:16:40;;;;;;;;;;;;;;;9.23;84.84;97917.47;4086584;28;5745;-66
2021/12/31 17:18:42;;;;;;;;;;;;;;;9.40;84.13;97925.47;4102746;28;5763;-66
2021/12/31 17:20:43;;;;;;;;;;;;;;;9.37;83.98;97920.50;4100699;28;5099;-66
2021/12/31 17:22:45;;;;;;;;;;;;;;;9.32;84.26;97913.91;4096335;28;5659;-66
2021/12/31 17:24:47;;;;;;;;;;;;;;;9.31;84.12;97922.81;4085465;28;5979;-66
2021/12/31 17:26:49;;;;;;;;;;;;;;;9.31;84.20;97927.25;4096275;28;5737;-66
2021/12/31 17:28:51;;;;;;;;;;;;;;;9.33;84.05;97928.75;4097526;28;5758;-66
2021/12/31 17:30:53;;;;;;;;;;;;;;;9.34;84.14;97927.75;4097580;28;5627;-66
2021/12/31 17:32:54;;;;;;;;;;;;;;;9.33;84.17;97930.56;4095061;28;5669;-66
2021/12/31 17:34:58;;;;;;;;;;;;;;;9.33;83.87;97936.66;4100117;28;5823;-66
2021/12/31 17:37:00;;;;;;;;;;;;;;;9.13;83.53;97931.75;4100510;28;6424;-66
2021/12/31 17:39:02;;;;;;;;;;;;;;;8.84;84.89;97921.53;4097180;28;5725;-66
2021/12/31 17:41:04;;;;;;;;;;;;;;;8.68;85.55;97927.50;4103236;28;5761;-66
2021/12/31 17:43:10;;;;;;;;;;;;;;;8.80;85.42;97933.34;4102823;28;5733;-66
2021/12/31 17:45:12;;;;;;;;;;;;;;;8.93;85.12;97933.78;4103295;28;5824;-66
2021/12/31 17:47:16;;;;;;;;;;;;;;;8.87;85.20;97929.13;4103476;28;5730;-66
2021/12/31 17:49:17;;;;;;;;;;;;;;;8.94;85.39;97930.16;4103868;28;5900;-66
2021/12/31 17:51:19;;;;;;;;;;;;;;;9.10;84.48;97937.34;4102268;28;5836;-66
2021/12/31 17:53:21;;;;;;;;;;;;;;;9.22;84.44;97938.75;4100455;28;5726;-66
2021/12/31 17:55:26;;;;;;;;;;;;;;;9.24;84.20;97945.50;4070081;29;5862;-66
2021/12/31 17:57:32;;;;;;;;;;;;;;;9.25;84.24;97949.81;4071047;29;5748;-66
2021/12/31 17:59:35;;;;;;;;;;;;;;;9.24;84.41;97955.25;4085579;28;5815;-66
2021/12/31 18:01:36;;;;;;;;;;;;;;;9.21;84.28;97948.47;4099401;28;5710;-66
2021/12/31 18:03:38;;;;;;;;;;;;;;;9.13;84.39;97948.41;4085999;29;5748;-67
2021/12/31 18:05:40;;;;;;;;;;;;;;;9.09;84.44;97955.00;4100583;28;5840;-66